sensor_id;sensor_type;location;lat;lon;timestamp;P1;P2;P0
65680;PMS5003;61747;54.966;73.394;2022-10-31T00:01:38;3.00;2.00;0.00
65680;PMS5003;61747;54.966;73.394;2022-10-31T00:04:04;4.00;4.00;0.00
65680;PMS5003;61747;54.966;73.394;2022-10-31T00:06:30;3.00;1.50;0.00
65680;PMS5003;61747;54.966;73.394;2022-10-31T00:08:57;2.00;2.00;0.00
65680;PMS5003;61747;54.966;73.394;2022-10-31T00:11:28;2.00;2.00;0.00
65680;PMS5003;61747;54.966;73.394;2022-10-31T00:14:04;3.00;2.00;0.00
65680;PMS5003;61747;54.966;73.394;2022-10-31T00:16:30;2.00;1.00;0.00
65680;PMS5003;61747;54.966;73.394;2022-10-31T00:18:57;2.25;1.50;0.00
65680;PMS5003;61747;54.966;73.394;2022-10-31T00:21:34;4.00;2.00;0.00
65680;PMS5003;61747;54.966;73.394;2022-10-31T00:24:00;2.00;2.00;0.00
65680;PMS5003;61747;54.966;73.394;2022-10-31T00:26:29;3.25;2.00;0.00
65680;PMS5003;61747;54.966;73.394;2022-10-31T00:28:55;2.00;2.00;0.00
65680;PMS5003;61747;54.966;73.394;2022-10-31T00:31:31;4.00;4.00;0.00
65680;PMS5003;61747;54.966;73.394;2022-10-31T00:34:03;4.00;4.00;0.00
65680;PMS5003;61747;54.966;73.394;2022-10-31T00:36:29;3.75;2.00;0.00
65680;PMS5003;61747;54.966;73.394;2022-10-31T00:38:55;4.00;4.00;0.50
65680;PMS5003;61747;54.966;73.394;2022-10-31T00:41:20;3.00;2.00;0.00
65680;PMS5003;61747;54.966;73.394;2022-10-31T00:43:46;2.00;1.00;0.00
65680;PMS5003;61747;54.966;73.394;2022-10-31T00:46:12;1.00;1.00;0.00
65680;PMS5003;61747;54.966;73.394;2022-10-31T00:48:38;3.00;2.00;0.00
65680;PMS5003;61747;54.966;73.394;2022-10-31T00:51:04;1.50;1.50;0.00
65680;PMS5003;61747;54.966;73.394;2022-10-31T00:53:30;3.50;2.75;0.00
65680;PMS5003;61747;54.966;73.394;2022-10-31T00:56:01;2.00;0.25;0.00
65680;PMS5003;61747;54.966;73.394;2022-10-31T00:58:27;1.00;1.00;0.00
65680;PMS5003;61747;54.966;73.394;2022-10-31T01:00:59;2.00;2.00;0.00
65680;PMS5003;61747;54.966;73.394;2022-10-31T01:03:27;2.00;2.00;0.00
65680;PMS5003;61747;54.966;73.394;2022-10-31T01:06:00;2.00;0.00;0.00
65680;PMS5003;61747;54.966;73.394;2022-10-31T01:08:27;1.00;1.00;0.00
65680;PMS5003;61747;54.966;73.394;2022-10-31T01:11:14;2.00;2.00;0.00
65680;PMS5003;61747;54.966;73.394;2022-10-31T01:13:40;2.50;2.00;0.00
65680;PMS5003;61747;54.966;73.394;2022-10-31T01:16:07;2.00;2.00;0.00
65680;PMS5003;61747;54.966;73.394;2022-10-31T01:18:33;3.00;2.00;1.00
65680;PMS5003;61747;54.966;73.394;2022-10-31T01:21:08;4.00;3.50;0.00
65680;PMS5003;61747;54.966;73.394;2022-10-31T01:23:42;2.00;2.00;0.00
65680;PMS5003;61747;54.966;73.394;2022-10-31T01:26:10;4.00;3.00;0.00
65680;PMS5003;61747;54.966;73.394;2022-10-31T01:28:45;3.00;3.00;0.00
65680;PMS5003;61747;54.966;73.394;2022-10-31T01:31:11;3.00;3.00;0.00
65680;PMS5003;61747;54.966;73.394;2022-10-31T01:33:37;2.50;2.00;0.00
65680;PMS5003;61747;54.966;73.394;2022-10-31T01:36:50;4.00;3.00;1.00
65680;PMS5003;61747;54.966;73.394;2022-10-31T01:39:00;4.00;3.75;2.00
65680;PMS5003;61747;54.966;73.394;2022-10-31T01:41:28;4.00;2.50;0.00
65680;PMS5003;61747;54.966;73.394;2022-10-31T01:43:55;4.00;2.00;0.00
65680;PMS5003;61747;54.966;73.394;2022-10-31T01:46:24;2.00;1.00;0.00
65680;PMS5003;61747;54.966;73.394;2022-10-31T01:48:51;4.00;2.00;0.75
65680;PMS5003;61747;54.966;73.394;2022-10-31T01:51:24;2.00;2.00;0.00
65680;PMS5003;61747;54.966;73.394;2022-10-31T01:53:51;2.00;2.00;0.00
65680;PMS5003;61747;54.966;73.394;2022-10-31T01:56:20;4.00;2.00;0.00
65680;PMS5003;61747;54.966;73.394;2022-10-31T01:58:47;3.75;2.00;0.00
65680;PMS5003;61747;54.966;73.394;2022-10-31T02:01:16;3.00;1.00;0.00
65680;PMS5003;61747;54.966;73.394;2022-10-31T02:03:46;4.00;2.00;0.00
65680;PMS5003;61747;54.966;73.394;2022-10-31T02:06:21;4.00;2.00;0.00
65680;PMS5003;61747;54.966;73.394;2022-10-31T02:08:50;3.50;3.50;0.50
65680;PMS5003;61747;54.966;73.394;2022-10-31T02:11:27;2.75;2.75;1.00
65680;PMS5003;61747;54.966;73.394;2022-10-31T02:13:54;4.00;3.00;0.25
65680;PMS5003;61747;54.966;73.394;2022-10-31T02:16:21;4.00;4.00;0.00
65680;PMS5003;61747;54.966;73.394;2022-10-31T02:18:47;4.75;3.00;0.75
65680;PMS5003;61747;54.966;73.394;2022-10-31T02:21:20;5.75;3.75;2.00
65680;PMS5003;61747;54.966;73.394;2022-10-31T02:32:05;2.50;2.00;0.00
65680;PMS5003;61747;54.966;73.394;2022-10-31T02:35:10;2.00;2.00;1.25
65680;PMS5003;61747;54.966;73.394;2022-10-31T02:37:29;3.00;3.00;1.00
65680;PMS5003;61747;54.966;73.394;2022-10-31T02:42:55;4.00;2.00;0.50
65680;PMS5003;61747;54.966;73.394;2022-10-31T02:47:50;4.00;4.00;0.00
65680;PMS5003;61747;54.966;73.394;2022-10-31T02:50:23;4.00;3.75;0.00
65680;PMS5003;61747;54.966;73.394;2022-10-31T02:52:51;4.00;3.00;0.00
65680;PMS5003;61747;54.966;73.394;2022-10-31T02:57:56;4.00;3.50;1.00
65680;PMS5003;61747;54.966;73.394;2022-10-31T03:00:26;2.75;2.75;0.00
65680;PMS5003;61747;54.966;73.394;2022-10-31T03:15:49;13.00;9.00;4.00
65680;PMS5003;61747;54.966;73.394;2022-10-31T03:20:53;13.75;8.00;4.00
65680;PMS5003;61747;54.966;73.394;2022-10-31T03:23:21;14.00;9.00;4.00
65680;PMS5003;61747;54.966;73.394;2022-10-31T03:25:59;13.75;10.50;4.00
65680;PMS5003;61747;54.966;73.394;2022-10-31T03:28:34;14.00;11.00;3.25
65680;PMS5003;61747;54.966;73.394;2022-10-31T03:31:03;12.00;10.00;4.00
65680;PMS5003;61747;54.966;73.394;2022-10-31T03:33:30;15.00;12.00;5.00
65680;PMS5003;61747;54.966;73.394;2022-10-31T03:35:57;14.00;10.75;3.00
65680;PMS5003;61747;54.966;73.394;2022-10-31T03:38:25;15.25;12.00;4.00
65680;PMS5003;61747;54.966;73.394;2022-10-31T03:40:52;16.50;12.00;4.25
65680;PMS5003;61747;54.966;73.394;2022-10-31T03:43:22;14.00;10.00;4.00
65680;PMS5003;61747;54.966;73.394;2022-10-31T03:45:59;12.00;10.25;4.00
65680;PMS5003;61747;54.966;73.394;2022-10-31T03:48:25;14.00;11.00;4.00
65680;PMS5003;61747;54.966;73.394;2022-10-31T03:53:30;14.00;11.00;4.00
65680;PMS5003;61747;54.966;73.394;2022-10-31T03:56:02;13.50;11.00;4.00
65680;PMS5003;61747;54.966;73.394;2022-10-31T03:58:43;14.00;12.00;4.25
65680;PMS5003;61747;54.966;73.394;2022-10-31T04:01:12;14.00;10.25;4.00
65680;PMS5003;61747;54.966;73.394;2022-10-31T04:03:51;15.00;12.75;5.00
65680;PMS5003;61747;54.966;73.394;2022-10-31T04:06:18;16.75;13.00;4.00
65680;PMS5003;61747;54.966;73.394;2022-10-31T04:08:47;17.50;12.75;5.75
65680;PMS5003;61747;54.966;73.394;2022-10-31T04:11:17;19.75;14.00;6.25
65680;PMS5003;61747;54.966;73.394;2022-10-31T04:14:03;16.25;14.00;6.00
65680;PMS5003;61747;54.966;73.394;2022-10-31T04:16:35;17.75;16.50;8.00
65680;PMS5003;61747;54.966;73.394;2022-10-31T04:19:01;19.00;16.00;5.50
65680;PMS5003;61747;54.966;73.394;2022-10-31T04:21:37;19.00;16.00;5.00
65680;PMS5003;61747;54.966;73.394;2022-10-31T04:24:09;19.00;16.25;5.00
65680;PMS5003;61747;54.966;73.394;2022-10-31T04:26:35;17.00;14.00;6.00
65680;PMS5003;61747;54.966;73.394;2022-10-31T04:29:01;18.75;15.00;5.00
65680;PMS5003;61747;54.966;73.394;2022-10-31T04:31:27;24.75;17.00;6.00
65680;PMS5003;61747;54.966;73.394;2022-10-31T04:33:53;21.00;18.50;7.00
65680;PMS5003;61747;54.966;73.394;2022-10-31T04:36:19;21.00;19.00;6.00
65680;PMS5003;61747;54.966;73.394;2022-10-31T04:38:56;17.25;15.75;5.50
65680;PMS5003;61747;54.966;73.394;2022-10-31T04:41:46;16.50;13.00;4.50
65680;PMS5003;61747;54.966;73.394;2022-10-31T04:44:14;15.00;12.00;4.00
65680;PMS5003;61747;54.966;73.394;2022-10-31T04:46:40;16.50;14.00;6.00
65680;PMS5003;61747;54.966;73.394;2022-10-31T04:49:07;19.00;16.00;7.00
65680;PMS5003;61747;54.966;73.394;2022-10-31T04:51:34;20.00;14.00;6.00
65680;PMS5003;61747;54.966;73.394;2022-10-31T04:54:00;18.00;14.00;6.00
65680;PMS5003;61747;54.966;73.394;2022-10-31T04:56:28;21.75;16.00;6.00
65680;PMS5003;61747;54.966;73.394;2022-10-31T04:59:04;17.00;14.50;6.00
65680;PMS5003;61747;54.966;73.394;2022-10-31T05:01:52;16.50;14.00;4.00
65680;PMS5003;61747;54.966;73.394;2022-10-31T05:04:24;21.00;13.00;4.00
65680;PMS5003;61747;54.966;73.394;2022-10-31T05:06:51;19.00;11.25;4.00
65680;PMS5003;61747;54.966;73.394;2022-10-31T05:09:17;17.00;12.00;4.00
65680;PMS5003;61747;54.966;73.394;2022-10-31T05:11:43;19.00;11.00;4.25
65680;PMS5003;61747;54.966;73.394;2022-10-31T05:14:32;20.00;12.75;5.00
65680;PMS5003;61747;54.966;73.394;2022-10-31T05:17:25;19.00;15.00;6.00
65680;PMS5003;61747;54.966;73.394;2022-10-31T05:20:21;15.00;12.25;5.00
65680;PMS5003;61747;54.966;73.394;2022-10-31T05:23:03;15.00;12.00;5.00
65680;PMS5003;61747;54.966;73.394;2022-10-31T05:25:29;14.00;12.25;4.00
65680;PMS5003;61747;54.966;73.394;2022-10-31T05:27:55;13.75;12.00;4.00
65680;PMS5003;61747;54.966;73.394;2022-10-31T05:30:27;13.50;10.00;3.75
65680;PMS5003;61747;54.966;73.394;2022-10-31T05:32:59;14.25;12.00;4.00
65680;PMS5003;61747;54.966;73.394;2022-10-31T05:35:33;15.00;12.75;5.00
65680;PMS5003;61747;54.966;73.394;2022-10-31T05:38:19;16.75;14.50;5.75
65680;PMS5003;61747;54.966;73.394;2022-10-31T05:40:45;16.00;13.75;5.75
65680;PMS5003;61747;54.966;73.394;2022-10-31T05:43:11;16.75;15.00;6.00
65680;PMS5003;61747;54.966;73.394;2022-10-31T05:45:38;17.00;15.25;6.00
65680;PMS5003;61747;54.966;73.394;2022-10-31T05:48:08;17.25;13.00;4.00
65680;PMS5003;61747;54.966;73.394;2022-10-31T05:50:52;18.00;14.00;5.25
65680;PMS5003;61747;54.966;73.394;2022-10-31T05:53:18;18.00;13.75;6.00
65680;PMS5003;61747;54.966;73.394;2022-10-31T05:55:44;15.00;13.00;5.00
65680;PMS5003;61747;54.966;73.394;2022-10-31T05:58:13;15.00;15.00;4.25
65680;PMS5003;61747;54.966;73.394;2022-10-31T06:00:43;15.25;14.50;5.00
65680;PMS5003;61747;54.966;73.394;2022-10-31T06:03:11;17.00;14.00;4.25
65680;PMS5003;61747;54.966;73.394;2022-10-31T06:05:56;15.75;14.00;5.00
65680;PMS5003;61747;54.966;73.394;2022-10-31T06:08:29;17.00;15.00;6.00
65680;PMS5003;61747;54.966;73.394;2022-10-31T06:10:58;15.00;14.00;6.00
65680;PMS5003;61747;54.966;73.394;2022-10-31T06:13:44;17.00;14.00;5.00
65680;PMS5003;61747;54.966;73.394;2022-10-31T06:16:22;19.00;15.00;6.00
65680;PMS5003;61747;54.966;73.394;2022-10-31T06:18:49;19.00;14.00;5.00
65680;PMS5003;61747;54.966;73.394;2022-10-31T06:21:15;19.00;13.75;5.25
65680;PMS5003;61747;54.966;73.394;2022-10-31T06:23:41;15.00;14.00;5.00
65680;PMS5003;61747;54.966;73.394;2022-10-31T06:26:35;14.00;10.50;3.25
65680;PMS5003;61747;54.966;73.394;2022-10-31T06:29:04;10.25;6.00;2.00
65680;PMS5003;61747;54.966;73.394;2022-10-31T06:31:50;4.75;3.25;0.25
65680;PMS5003;61747;54.966;73.394;2022-10-31T06:34:16;7.50;4.50;1.00
65680;PMS5003;61747;54.966;73.394;2022-10-31T06:36:45;8.50;6.00;2.00
65680;PMS5003;61747;54.966;73.394;2022-10-31T06:39:11;11.00;5.25;2.00
65680;PMS5003;61747;54.966;73.394;2022-10-31T06:41:37;12.00;8.00;2.00
65680;PMS5003;61747;54.966;73.394;2022-10-31T06:44:12;13.00;8.00;3.00
65680;PMS5003;61747;54.966;73.394;2022-10-31T06:46:53;15.50;10.25;5.75
65680;PMS5003;61747;54.966;73.394;2022-10-31T06:49:42;13.75;11.00;4.00
65680;PMS5003;61747;54.966;73.394;2022-10-31T06:52:12;15.00;11.00;4.00
65680;PMS5003;61747;54.966;73.394;2022-10-31T06:54:46;12.50;10.00;4.00
65680;PMS5003;61747;54.966;73.394;2022-10-31T06:57:13;17.00;11.50;5.25
65680;PMS5003;61747;54.966;73.394;2022-10-31T06:59:38;20.75;16.75;7.00
65680;PMS5003;61747;54.966;73.394;2022-10-31T07:02:13;23.00;17.00;6.00
65680;PMS5003;61747;54.966;73.394;2022-10-31T07:04:41;23.00;17.00;6.00
65680;PMS5003;61747;54.966;73.394;2022-10-31T07:07:08;21.25;17.00;8.00
65680;PMS5003;61747;54.966;73.394;2022-10-31T07:09:40;20.50;16.25;8.00
65680;PMS5003;61747;54.966;73.394;2022-10-31T07:12:08;25.75;17.00;9.00
65680;PMS5003;61747;54.966;73.394;2022-10-31T07:14:37;22.25;15.25;8.00
65680;PMS5003;61747;54.966;73.394;2022-10-31T07:17:03;23.33;17.00;8.00
65680;PMS5003;61747;54.966;73.394;2022-10-31T07:19:48;21.00;16.00;7.00
65680;PMS5003;61747;54.966;73.394;2022-10-31T07:22:16;18.00;17.00;6.00
65680;PMS5003;61747;54.966;73.394;2022-10-31T07:24:43;20.50;16.50;6.00
65680;PMS5003;61747;54.966;73.394;2022-10-31T07:27:45;15.00;12.75;4.00
65680;PMS5003;61747;54.966;73.394;2022-10-31T07:30:12;15.00;12.50;4.00
65680;PMS5003;61747;54.966;73.394;2022-10-31T07:32:44;12.75;9.00;2.00
65680;PMS5003;61747;54.966;73.394;2022-10-31T07:35:17;9.25;5.00;2.00
65680;PMS5003;61747;54.966;73.394;2022-10-31T07:37:51;7.00;6.00;3.00
65680;PMS5003;61747;54.966;73.394;2022-10-31T07:40:18;7.00;6.75;3.00
65680;PMS5003;61747;54.966;73.394;2022-10-31T07:42:46;6.00;5.50;2.00
65680;PMS5003;61747;54.966;73.394;2022-10-31T07:45:32;8.50;8.00;3.00
65680;PMS5003;61747;54.966;73.394;2022-10-31T07:48:21;13.25;11.00;5.50
65680;PMS5003;61747;54.966;73.394;2022-10-31T07:51:15;12.50;11.00;4.00
65680;PMS5003;61747;54.966;73.394;2022-10-31T07:53:59;16.25;12.50;6.00
65680;PMS5003;61747;54.966;73.394;2022-10-31T07:56:39;14.75;12.00;4.00
65680;PMS5003;61747;54.966;73.394;2022-10-31T07:59:05;14.00;12.00;4.75
65680;PMS5003;61747;54.966;73.394;2022-10-31T08:01:31;13.75;13.00;5.00
65680;PMS5003;61747;54.966;73.394;2022-10-31T08:04:23;15.00;13.00;5.25
65680;PMS5003;61747;54.966;73.394;2022-10-31T08:07:17;14.25;10.50;4.00
65680;PMS5003;61747;54.966;73.394;2022-10-31T08:10:00;15.00;12.00;5.00
65680;PMS5003;61747;54.966;73.394;2022-10-31T08:12:29;15.00;13.00;5.00
65680;PMS5003;61747;54.966;73.394;2022-10-31T08:14:55;15.00;14.00;4.00
65680;PMS5003;61747;54.966;73.394;2022-10-31T08:17:21;15.00;13.00;4.00
65680;PMS5003;61747;54.966;73.394;2022-10-31T08:20:13;15.00;13.00;4.00
65680;PMS5003;61747;54.966;73.394;2022-10-31T08:23:03;15.00;13.00;4.00
65680;PMS5003;61747;54.966;73.394;2022-10-31T08:25:33;16.75;13.00;5.50
65680;PMS5003;61747;54.966;73.394;2022-10-31T08:28:00;15.00;13.00;4.00
65680;PMS5003;61747;54.966;73.394;2022-10-31T08:30:32;17.00;14.50;4.00
65680;PMS5003;61747;54.966;73.394;2022-10-31T08:33:32;17.00;14.00;4.25
65680;PMS5003;61747;54.966;73.394;2022-10-31T08:36:07;17.00;12.50;4.00
65680;PMS5003;61747;54.966;73.394;2022-10-31T08:38:54;15.25;12.00;4.00
65680;PMS5003;61747;54.966;73.394;2022-10-31T08:41:25;14.00;12.00;4.00
65680;PMS5003;61747;54.966;73.394;2022-10-31T08:43:51;15.00;13.00;4.00
65680;PMS5003;61747;54.966;73.394;2022-10-31T08:46:27;17.50;14.00;4.00
65680;PMS5003;61747;54.966;73.394;2022-10-31T08:48:58;15.00;12.75;4.00
65680;PMS5003;61747;54.966;73.394;2022-10-31T08:51:30;15.75;13.00;4.50
65680;PMS5003;61747;54.966;73.394;2022-10-31T08:53:56;15.00;13.00;4.25
65680;PMS5003;61747;54.966;73.394;2022-10-31T08:56:54;13.00;11.75;3.00
65680;PMS5003;61747;54.966;73.394;2022-10-31T08:59:30;14.75;13.00;4.00
65680;PMS5003;61747;54.966;73.394;2022-10-31T09:02:14;17.50;14.25;4.25
65680;PMS5003;61747;54.966;73.394;2022-10-31T09:04:40;18.00;15.00;4.75
65680;PMS5003;61747;54.966;73.394;2022-10-31T09:07:06;16.00;13.00;4.00
65680;PMS5003;61747;54.966;73.394;2022-10-31T09:09:32;15.00;13.00;3.00
65680;PMS5003;61747;54.966;73.394;2022-10-31T09:11:57;13.50;11.25;3.00
65680;PMS5003;61747;54.966;73.394;2022-10-31T09:14:42;14.50;13.00;4.00
65680;PMS5003;61747;54.966;73.394;2022-10-31T09:17:20;13.00;13.00;5.00
65680;PMS5003;61747;54.966;73.394;2022-10-31T09:20:17;13.00;11.00;4.00
65680;PMS5003;61747;54.966;73.394;2022-10-31T09:22:54;14.00;11.75;4.00
65680;PMS5003;61747;54.966;73.394;2022-10-31T09:25:21;14.00;8.75;2.00
65680;PMS5003;61747;54.966;73.394;2022-10-31T09:28:06;12.00;9.00;3.00
65680;PMS5003;61747;54.966;73.394;2022-10-31T09:30:39;11.00;4.75;2.00
65680;PMS5003;61747;54.966;73.394;2022-10-31T09:33:06;11.00;6.25;2.00
65680;PMS5003;61747;54.966;73.394;2022-10-31T09:35:33;11.50;6.00;2.00
65680;PMS5003;61747;54.966;73.394;2022-10-31T09:38:05;13.00;8.75;4.00
65680;PMS5003;61747;54.966;73.394;2022-10-31T09:43:00;13.00;8.50;3.00
65680;PMS5003;61747;54.966;73.394;2022-10-31T09:45:39;13.00;8.50;3.00
65680;PMS5003;61747;54.966;73.394;2022-10-31T09:51:33;11.00;8.00;2.00
65680;PMS5003;61747;54.966;73.394;2022-10-31T09:54:32;10.25;8.00;2.75
65680;PMS5003;61747;54.966;73.394;2022-10-31T09:56:59;13.25;9.75;3.00
65680;PMS5003;61747;54.966;73.394;2022-10-31T09:59:37;15.00;9.00;3.00
65680;PMS5003;61747;54.966;73.394;2022-10-31T10:04:56;12.00;6.25;2.00
65680;PMS5003;61747;54.966;73.394;2022-10-31T10:10:13;9.25;5.25;1.50
65680;PMS5003;61747;54.966;73.394;2022-10-31T10:22:40;13.50;6.75;2.00
65680;PMS5003;61747;54.966;73.394;2022-10-31T10:25:28;11.25;6.75;2.75
65680;PMS5003;61747;54.966;73.394;2022-10-31T10:27:58;9.75;6.00;2.00
65680;PMS5003;61747;54.966;73.394;2022-10-31T10:30:28;9.75;7.00;2.00
65680;PMS5003;61747;54.966;73.394;2022-10-31T10:32:59;10.50;5.50;2.00
65680;PMS5003;61747;54.966;73.394;2022-10-31T10:35:30;8.00;5.00;2.00
65680;PMS5003;61747;54.966;73.394;2022-10-31T10:40:39;8.00;5.00;2.00
65680;PMS5003;61747;54.966;73.394;2022-10-31T10:43:22;8.00;4.00;1.00
65680;PMS5003;61747;54.966;73.394;2022-10-31T10:48:58;7.75;5.00;2.00
65680;PMS5003;61747;54.966;73.394;2022-10-31T10:51:40;7.75;5.50;2.00
65680;PMS5003;61747;54.966;73.394;2022-10-31T10:54:13;8.00;6.00;2.00
65680;PMS5003;61747;54.966;73.394;2022-10-31T10:56:54;6.50;4.00;2.00
65680;PMS5003;61747;54.966;73.394;2022-10-31T10:59:24;6.00;5.50;2.00
65680;PMS5003;61747;54.966;73.394;2022-10-31T11:01:51;4.00;4.00;0.00
65680;PMS5003;61747;54.966;73.394;2022-10-31T11:04:33;7.75;6.00;2.25
65680;PMS5003;61747;54.966;73.394;2022-10-31T11:07:04;6.00;4.00;1.00
65680;PMS5003;61747;54.966;73.394;2022-10-31T11:09:30;5.00;4.00;0.00
65680;PMS5003;61747;54.966;73.394;2022-10-31T11:11:56;6.00;5.00;0.25
65680;PMS5003;61747;54.966;73.394;2022-10-31T11:14:28;10.50;6.25;2.00
65680;PMS5003;61747;54.966;73.394;2022-10-31T11:16:55;10.00;6.00;1.75
65680;PMS5003;61747;54.966;73.394;2022-10-31T11:19:33;8.00;6.00;2.00
65680;PMS5003;61747;54.966;73.394;2022-10-31T11:22:05;8.00;5.00;1.00
65680;PMS5003;61747;54.966;73.394;2022-10-31T11:24:35;4.00;4.00;1.00
65680;PMS5003;61747;54.966;73.394;2022-10-31T11:27:03;6.00;5.00;2.00
65680;PMS5003;61747;54.966;73.394;2022-10-31T11:29:35;6.00;6.00;2.00
65680;PMS5003;61747;54.966;73.394;2022-10-31T11:32:02;10.00;8.00;2.75
65680;PMS5003;61747;54.966;73.394;2022-10-31T11:34:34;12.50;8.00;2.00
65680;PMS5003;61747;54.966;73.394;2022-10-31T11:39:43;9.00;6.00;4.00
65680;PMS5003;61747;54.966;73.394;2022-10-31T11:42:09;8.75;5.50;2.00
65680;PMS5003;61747;54.966;73.394;2022-10-31T11:44:36;11.50;4.25;2.25
65680;PMS5003;61747;54.966;73.394;2022-10-31T11:47:13;10.00;4.75;2.00
65680;PMS5003;61747;54.966;73.394;2022-10-31T11:49:44;6.00;4.00;2.00
65680;PMS5003;61747;54.966;73.394;2022-10-31T11:52:16;6.00;5.00;2.00
65680;PMS5003;61747;54.966;73.394;2022-10-31T11:57:24;8.75;6.00;2.50
65680;PMS5003;61747;54.966;73.394;2022-10-31T11:59:51;6.00;4.00;2.00
65680;PMS5003;61747;54.966;73.394;2022-10-31T12:02:22;5.25;4.00;2.00
65680;PMS5003;61747;54.966;73.394;2022-10-31T12:05:04;6.00;5.25;2.00
65680;PMS5003;61747;54.966;73.394;2022-10-31T12:07:38;8.00;6.00;2.00
65680;PMS5003;61747;54.966;73.394;2022-10-31T12:10:11;6.00;5.00;2.00
65680;PMS5003;61747;54.966;73.394;2022-10-31T12:12:52;8.00;6.00;2.00
65680;PMS5003;61747;54.966;73.394;2022-10-31T12:23:32;8.00;5.50;2.25
65680;PMS5003;61747;54.966;73.394;2022-10-31T12:29:41;6.25;6.25;3.50
65680;PMS5003;61747;54.966;73.394;2022-10-31T12:34:22;4.25;3.00;0.25
65680;PMS5003;61747;54.966;73.394;2022-10-31T12:37:00;12.00;7.00;3.00
65680;PMS5003;61747;54.966;73.394;2022-10-31T12:39:39;11.75;7.00;3.00
65680;PMS5003;61747;54.966;73.394;2022-10-31T12:45:53;8.00;7.00;2.75
65680;PMS5003;61747;54.966;73.394;2022-10-31T12:50:50;10.00;8.00;2.00
65680;PMS5003;61747;54.966;73.394;2022-10-31T12:58:35;8.67;7.67;3.00
65680;PMS5003;61747;54.966;73.394;2022-10-31T13:01:10;10.50;8.00;2.00
65680;PMS5003;61747;54.966;73.394;2022-10-31T13:03:48;12.00;8.00;3.00
65680;PMS5003;61747;54.966;73.394;2022-10-31T13:06:21;12.00;10.00;4.25
65680;PMS5003;61747;54.966;73.394;2022-10-31T13:08:49;14.00;10.50;4.00
65680;PMS5003;61747;54.966;73.394;2022-10-31T13:11:19;12.00;10.00;3.00
65680;PMS5003;61747;54.966;73.394;2022-10-31T13:13:53;12.00;8.00;3.00
65680;PMS5003;61747;54.966;73.394;2022-10-31T13:16:22;13.75;8.50;4.00
65680;PMS5003;61747;54.966;73.394;2022-10-31T13:21:29;10.00;8.00;4.00
65680;PMS5003;61747;54.966;73.394;2022-10-31T13:23:58;10.75;5.50;2.25
65680;PMS5003;61747;54.966;73.394;2022-10-31T13:26:46;10.00;6.00;2.00
65680;PMS5003;61747;54.966;73.394;2022-10-31T13:29:32;14.00;10.25;4.25
65680;PMS5003;61747;54.966;73.394;2022-10-31T13:32:04;12.00;10.00;3.00
65680;PMS5003;61747;54.966;73.394;2022-10-31T13:34:34;10.00;9.50;2.00
65680;PMS5003;61747;54.966;73.394;2022-10-31T13:42:22;14.00;8.00;4.00
65680;PMS5003;61747;54.966;73.394;2022-10-31T13:44:53;12.00;8.50;3.00
65680;PMS5003;61747;54.966;73.394;2022-10-31T13:47:20;14.00;10.00;4.00
65680;PMS5003;61747;54.966;73.394;2022-10-31T13:50:02;9.25;8.00;3.50
65680;PMS5003;61747;54.966;73.394;2022-10-31T13:52:39;11.50;9.75;2.00
65680;PMS5003;61747;54.966;73.394;2022-10-31T13:55:07;7.00;4.25;2.00
65680;PMS5003;61747;54.966;73.394;2022-10-31T13:57:50;6.00;6.00;2.00
65680;PMS5003;61747;54.966;73.394;2022-10-31T14:02:56;9.00;5.50;2.00
65680;PMS5003;61747;54.966;73.394;2022-10-31T14:07:48;6.75;4.00;1.75
65680;PMS5003;61747;54.966;73.394;2022-10-31T14:12:49;7.50;2.75;0.00
65680;PMS5003;61747;54.966;73.394;2022-10-31T14:15:16;6.00;5.25;1.00
65680;PMS5003;61747;54.966;73.394;2022-10-31T14:25:48;10.00;6.25;2.00
65680;PMS5003;61747;54.966;73.394;2022-10-31T14:28:20;9.00;6.00;2.00
65680;PMS5003;61747;54.966;73.394;2022-10-31T14:30:58;9.25;7.50;2.00
65680;PMS5003;61747;54.966;73.394;2022-10-31T14:33:34;11.00;10.00;3.00
65680;PMS5003;61747;54.966;73.394;2022-10-31T14:36:01;12.00;8.25;2.00
65680;PMS5003;61747;54.966;73.394;2022-10-31T14:51:46;10.00;6.00;2.00
65680;PMS5003;61747;54.966;73.394;2022-10-31T14:54:15;10.00;6.00;2.25
65680;PMS5003;61747;54.966;73.394;2022-10-31T14:56:47;9.50;5.50;1.00
65680;PMS5003;61747;54.966;73.394;2022-10-31T14:59:24;8.00;6.50;3.50
65680;PMS5003;61747;54.966;73.394;2022-10-31T15:01:54;10.00;6.00;2.00
65680;PMS5003;61747;54.966;73.394;2022-10-31T15:04:22;12.00;8.00;4.00
65680;PMS5003;61747;54.966;73.394;2022-10-31T15:07:12;9.00;6.25;2.00
65680;PMS5003;61747;54.966;73.394;2022-10-31T15:09:54;11.00;7.75;3.00
65680;PMS5003;61747;54.966;73.394;2022-10-31T15:12:29;6.25;4.25;1.00
65680;PMS5003;61747;54.966;73.394;2022-10-31T15:15:20;4.00;4.00;2.00
65680;PMS5003;61747;54.966;73.394;2022-10-31T15:18:04;6.25;5.75;2.25
65680;PMS5003;61747;54.966;73.394;2022-10-31T15:20:41;9.00;7.00;2.00
65680;PMS5003;61747;54.966;73.394;2022-10-31T15:23:22;9.00;5.00;2.00
65680;PMS5003;61747;54.966;73.394;2022-10-31T15:26:02;11.75;7.00;2.00
65680;PMS5003;61747;54.966;73.394;2022-10-31T15:28:33;8.00;4.25;2.00
65680;PMS5003;61747;54.966;73.394;2022-10-31T15:31:00;8.50;4.75;2.00
65680;PMS5003;61747;54.966;73.394;2022-10-31T15:33:41;8.00;5.25;2.50
65680;PMS5003;61747;54.966;73.394;2022-10-31T15:36:20;6.00;5.00;2.00
65680;PMS5003;61747;54.966;73.394;2022-10-31T15:38:46;6.00;5.00;2.00
65680;PMS5003;61747;54.966;73.394;2022-10-31T15:41:47;6.00;5.75;2.00
65680;PMS5003;61747;54.966;73.394;2022-10-31T15:44:10;5.25;4.50;2.00
65680;PMS5003;61747;54.966;73.394;2022-10-31T15:46:37;7.25;4.75;2.00
65680;PMS5003;61747;54.966;73.394;2022-10-31T15:49:02;7.50;4.00;2.00
65680;PMS5003;61747;54.966;73.394;2022-10-31T15:51:30;6.00;4.00;2.00
65680;PMS5003;61747;54.966;73.394;2022-10-31T15:54:01;5.25;3.25;1.00
65680;PMS5003;61747;54.966;73.394;2022-10-31T15:56:37;5.00;3.75;1.00
65680;PMS5003;61747;54.966;73.394;2022-10-31T15:59:03;4.00;2.00;0.00
65680;PMS5003;61747;54.966;73.394;2022-10-31T16:01:30;4.00;4.00;0.00
65680;PMS5003;61747;54.966;73.394;2022-10-31T16:04:19;4.50;4.00;2.00
65680;PMS5003;61747;54.966;73.394;2022-10-31T16:06:51;10.00;6.00;3.00
65680;PMS5003;61747;54.966;73.394;2022-10-31T16:09:23;9.25;5.00;2.00
65680;PMS5003;61747;54.966;73.394;2022-10-31T16:11:49;10.00;6.00;2.00
65680;PMS5003;61747;54.966;73.394;2022-10-31T16:14:17;8.25;5.50;2.00
65680;PMS5003;61747;54.966;73.394;2022-10-31T16:16:45;6.25;4.25;1.00
65680;PMS5003;61747;54.966;73.394;2022-10-31T16:19:21;7.25;5.25;2.00
65680;PMS5003;61747;54.966;73.394;2022-10-31T16:21:48;10.00;5.75;2.00
65680;PMS5003;61747;54.966;73.394;2022-10-31T16:24:34;7.25;5.00;1.00
65680;PMS5003;61747;54.966;73.394;2022-10-31T16:27:17;10.00;7.50;0.75
65680;PMS5003;61747;54.966;73.394;2022-10-31T16:29:44;7.00;5.00;2.00
65680;PMS5003;61747;54.966;73.394;2022-10-31T16:35:00;6.25;5.00;2.00
65680;PMS5003;61747;54.966;73.394;2022-10-31T16:37:25;4.25;4.00;2.00
65680;PMS5003;61747;54.966;73.394;2022-10-31T16:39:51;8.50;4.25;2.00
65680;PMS5003;61747;54.966;73.394;2022-10-31T16:42:17;9.75;6.00;2.00